Time;durP1;ratioP1;P1;durP2;ratioP2;P2;SDS_P1;SDS_P2;PMS_P1;PMS_P2;Temp;Humidity;BMP_temperature;BMP_pressure;BME280_temperature;BME280_humidity;BME280_pressure;Samples;Min_cycle;Max_cycle;Signal;HPM_P1;HPM_P2
2022/05/05 00:02:11;;;;;;;16.67;10.57;;;11.70;99.90;;;;;;5072901;28;20100;-80
2022/05/05 00:04:37;;;;;;;14.75;10.85;;;11.70;99.90;;;;;;5072832;28;20415;-80
2022/05/05 00:07:04;;;;;;;15.57;10.02;;;11.70;99.90;;;;;;5072937;28;20104;-81
2022/05/05 00:09:30;;;;;;;16.08;10.32;;;11.60;99.90;;;;;;5072708;28;20076;-81
2022/05/05 00:14:41;;;;;;;15.65;11.07;;;11.60;99.90;;;;;;5072853;28;20106;-81
2022/05/05 00:17:09;;;;;;;15.60;9.73;;;11.60;99.90;;;;;;5072783;28;20030;-81
2022/05/05 00:19:38;;;;;;;17.67;9.90;;;11.50;99.90;;;;;;5071537;28;20511;-81
2022/05/05 00:22:05;;;;;;;13.63;10.80;;;11.50;99.90;;;;;;5072832;28;20495;-81
2022/05/05 00:24:31;;;;;;;14.70;9.32;;;11.40;99.90;;;;;;5072642;28;20064;-81
2022/05/05 00:26:57;;;;;;;19.30;11.05;;;11.40;99.90;;;;;;5072903;28;20025;-81
2022/05/05 00:29:25;;;;;;;17.35;11.45;;;11.30;99.90;;;;;;5072690;28;20074;-81
2022/05/05 00:31:52;;;;;;;16.48;10.85;;;11.30;99.90;;;;;;5072352;28;20479;-83
2022/05/05 00:34:18;;;;;;;12.27;9.43;;;11.20;99.90;;;;;;5072570;28;20024;-84
2022/05/05 00:36:45;;;;;;;12.30;10.18;;;11.20;99.90;;;;;;5071403;28;20491;-86
2022/05/05 00:39:11;;;;;;;17.65;10.77;;;11.10;99.90;;;;;;5071322;28;20070;-86
2022/05/05 00:42:02;;;;;;;13.93;10.02;;;11.10;99.90;;;;;;5072627;28;20021;-86
2022/05/05 00:44:28;;;;;;;16.42;9.95;;;11.00;99.90;;;;;;5072412;28;20028;-86
2022/05/05 00:46:54;;;;;;;16.33;9.40;;;11.00;99.90;;;;;;5071057;28;20103;-86
2022/05/05 00:49:20;;;;;;;17.50;11.20;;;10.90;99.90;;;;;;5072394;28;20112;-86
2022/05/05 00:51:59;;;;;;;17.50;10.63;;;10.90;99.90;;;;;;5072518;28;20064;-86
2022/05/05 00:54:25;;;;;;;16.50;11.20;;;10.80;99.90;;;;;;5072357;28;20108;-86
2022/05/05 00:56:52;;;;;;;19.15;11.63;;;10.70;99.90;;;;;;5072480;28;20043;-86
2022/05/05 00:59:18;;;;;;;18.40;11.95;;;10.70;99.90;;;;;;5071146;28;20034;-86
2022/05/05 01:01:55;;;;;;;22.80;12.80;;;10.70;99.90;;;;;;5073231;28;20110;-86
2022/05/05 01:04:20;;;;;;;15.63;11.07;;;10.70;99.90;;;;;;5074859;28;20017;-86
2022/05/05 01:07:13;;;;;;;13.82;9.43;;;10.60;99.90;;;;;;5075026;28;20431;-86
2022/05/05 01:09:40;;;;;;;13.30;9.30;;;10.60;99.90;;;;;;5076123;28;20021;-86
2022/05/05 01:12:06;;;;;;;13.20;9.02;;;10.60;99.90;;;;;;5074971;28;20056;-86
2022/05/05 01:14:33;;;;;;;21.10;10.93;;;10.60;99.90;;;;;;5076054;28;20082;-86
2022/05/05 01:17:21;;;;;;;14.57;9.90;;;10.60;99.90;;;;;;5074636;28;20038;-86
2022/05/05 01:19:47;;;;;;;17.00;10.38;;;10.60;99.90;;;;;;5076109;28;20023;-86
2022/05/05 01:22:15;;;;;;;12.35;9.27;;;10.60;99.90;;;;;;5074686;28;20022;-87
2022/05/05 01:30:22;;;;;;;20.70;11.40;;;10.60;99.90;;;;;;5075959;28;20562;-86
2022/05/05 01:32:47;;;;;;;18.40;12.05;;;10.50;99.90;;;;;;5074359;28;20071;-86
2022/05/05 01:35:13;;;;;;;15.80;11.48;;;10.50;99.90;;;;;;5075780;28;20028;-86
2022/05/05 01:37:38;;;;;;;18.00;11.98;;;10.50;99.90;;;;;;5074306;28;20024;-86
2022/05/05 01:40:07;;;;;;;18.27;11.82;;;10.40;99.90;;;;;;5074349;28;20357;-86
2022/05/05 01:42:33;;;;;;;18.92;11.30;;;10.40;99.90;;;;;;5075574;28;20027;-86
2022/05/05 01:45:17;;;;;;;13.57;10.10;;;10.40;99.90;;;;;;5075457;28;20032;-86
2022/05/05 01:47:43;;;;;;;19.92;12.35;;;10.40;99.90;;;;;;5075173;28;20070;-86
2022/05/05 01:50:14;;;;;;;19.65;12.30;;;10.40;99.90;;;;;;5075426;28;20020;-86
2022/05/05 01:52:40;;;;;;;16.63;11.23;;;10.40;99.90;;;;;;5075202;28;20095;-86
2022/05/05 01:55:08;;;;;;;16.90;12.45;;;10.30;99.90;;;;;;5075552;28;20104;-86
2022/05/05 01:57:33;;;;;;;20.48;13.00;;;10.30;99.90;;;;;;5075443;28;20028;-86
2022/05/05 02:00:03;;;;;;;23.58;13.63;;;10.40;99.90;;;;;;5073861;28;20082;-86
2022/05/05 02:02:29;;;;;;;22.58;13.50;;;10.40;99.90;;;;;;5074865;28;20021;-86
2022/05/05 02:04:57;;;;;;;25.80;13.57;;;10.40;99.90;;;;;;5075023;28;20020;-86
2022/05/05 02:07:23;;;;;;;21.95;14.05;;;10.50;99.90;;;;;;5075121;28;20025;-86
2022/05/05 02:10:03;;;;;;;28.02;15.10;;;10.40;99.90;;;;;;5075256;28;20025;-86
2022/05/05 02:12:33;;;;;;;25.08;14.55;;;10.40;99.90;;;;;;5074963;28;20514;-86
2022/05/05 02:15:09;;;;;;;20.52;12.98;;;10.40;99.90;;;;;;5074400;28;20060;-86
2022/05/05 02:17:41;;;;;;;34.35;13.85;;;10.40;99.90;;;;;;5074618;28;20051;-86
2022/05/05 02:20:08;;;;;;;27.42;13.98;;;10.40;99.90;;;;;;5074008;28;20020;-86
2022/05/05 02:22:34;;;;;;;26.77;13.68;;;10.40;99.90;;;;;;5074797;28;20043;-86
2022/05/05 02:25:00;;;;;;;24.88;14.48;;;10.40;99.90;;;;;;5073392;28;20028;-86
2022/05/05 02:27:26;;;;;;;28.50;14.70;;;10.30;99.90;;;;;;5074847;28;20044;-86
2022/05/05 02:30:06;;;;;;;29.70;13.95;;;10.40;99.90;;;;;;5074770;28;20081;-86
2022/05/05 02:32:38;;;;;;;25.35;13.43;;;10.30;99.90;;;;;;5074243;28;20037;-86
2022/05/05 02:35:04;;;;;;;26.25;13.05;;;10.30;99.90;;;;;;5073150;28;20047;-86
2022/05/05 02:40:14;;;;;;;27.55;13.45;;;10.20;99.90;;;;;;5074752;28;20490;-86
2022/05/05 02:42:46;;;;;;;32.67;13.68;;;10.20;99.90;;;;;;5073925;28;20099;-85
2022/05/05 02:45:11;;;;;;;27.23;14.07;;;10.10;99.90;;;;;;5074429;28;20508;-86
2022/05/05 02:47:39;;;;;;;25.60;12.98;;;10.10;99.90;;;;;;5072771;28;20372;-86
2022/05/05 02:50:05;;;;;;;20.00;12.23;;;10.00;99.90;;;;;;5072998;28;20039;-86
2022/05/05 02:52:30;;;;;;;27.38;12.52;;;9.90;99.90;;;;;;5074078;28;20060;-86
2022/05/05 02:54:56;;;;;;;22.65;12.98;;;9.80;99.90;;;;;;5074489;28;20476;-86
2022/05/05 02:57:24;;;;;;;21.42;13.00;;;9.80;99.90;;;;;;5072821;28;20461;-86
2022/05/05 02:59:50;;;;;;;18.70;11.05;;;9.70;99.90;;;;;;5074109;28;20056;-86
2022/05/05 03:02:26;;;;;;;19.30;13.30;;;9.60;99.90;;;;;;5073839;28;20036;-86
2022/05/05 03:04:52;;;;;;;22.05;11.88;;;9.60;99.90;;;;;;5072695;28;20545;-86
2022/05/05 03:07:18;;;;;;;14.70;10.48;;;9.50;99.90;;;;;;5073996;28;20524;-86
2022/05/05 03:09:44;;;;;;;17.20;10.50;;;9.50;99.90;;;;;;5072598;28;20017;-86
2022/05/05 03:12:23;;;;;;;12.60;9.43;;;9.40;99.90;;;;;;5073839;28;20032;-86
2022/05/05 03:14:49;;;;;;;17.45;11.52;;;9.50;99.90;;;;;;5072422;28;20074;-86
2022/05/05 03:17:16;;;;;;;13.80;10.73;;;9.40;99.90;;;;;;5073470;28;20016;-86
2022/05/05 03:19:42;;;;;;;19.80;10.63;;;9.30;99.90;;;;;;5073683;28;20031;-86
2022/05/05 03:22:13;;;;;;;16.85;11.23;;;9.30;99.90;;;;;;5072412;28;20028;-86
2022/05/05 03:24:39;;;;;;;20.38;11.73;;;9.20;99.90;;;;;;5072873;28;20115;-86
2022/05/05 03:27:26;;;;;;;20.90;12.25;;;9.20;99.90;;;;;;5073343;28;20466;-86
2022/05/05 03:29:51;;;;;;;24.48;12.18;;;9.10;99.90;;;;;;5073544;28;20048;-86
2022/05/05 03:32:17;;;;;;;23.08;12.38;;;9.10;99.90;;;;;;5070373;28;20075;-86
2022/05/05 03:34:46;;;;;;;16.33;12.18;;;9.00;99.90;;;;;;5073275;28;20020;-86
2022/05/05 03:37:11;;;;;;;24.25;12.82;;;8.90;99.90;;;;;;5072216;28;20423;-86
2022/05/05 03:39:38;;;;;;;22.25;13.27;;;9.00;99.90;;;;;;5073387;28;20029;-86
2022/05/05 03:42:04;;;;;;;25.38;14.02;;;9.00;99.90;;;;;;5073261;28;20021;-86
2022/05/05 03:44:36;;;;;;;19.95;12.35;;;9.00;99.90;;;;;;5073148;28;20103;-86
2022/05/05 03:47:02;;;;;;;20.58;12.07;;;8.90;99.90;;;;;;5071882;28;20027;-86
2022/05/05 03:49:38;;;;;;;13.57;10.77;;;8.90;99.90;;;;;;5071890;28;20017;-86
2022/05/05 03:52:04;;;;;;;31.55;14.57;;;8.90;99.90;;;;;;5071930;28;20484;-86
2022/05/05 03:54:37;;;;;;;15.60;11.10;;;8.90;99.90;;;;;;5072017;28;20021;-86
2022/05/05 03:57:02;;;;;;;14.32;9.73;;;8.90;99.90;;;;;;5073169;28;20391;-86
2022/05/05 03:59:32;;;;;;;21.65;13.50;;;8.90;99.90;;;;;;5073093;28;20024;-86
2022/05/05 04:01:57;;;;;;;14.32;10.27;;;8.90;99.90;;;;;;5071382;28;20044;-86
2022/05/05 04:04:45;;;;;;;15.48;11.32;;;8.90;99.90;;;;;;5073067;28;20071;-86
2022/05/05 04:07:11;;;;;;;13.85;9.88;;;9.00;99.90;;;;;;5072951;28;20066;-86
2022/05/05 04:09:43;;;;;;;12.32;9.48;;;9.00;99.90;;;;;;5072815;28;20028;-86
2022/05/05 04:12:09;;;;;;;13.13;9.20;;;9.00;99.90;;;;;;5071648;28;20480;-86
2022/05/05 04:14:43;;;;;;;13.02;8.98;;;9.00;99.90;;;;;;5071458;28;20112;-86
2022/05/05 04:17:08;;;;;;;17.63;10.63;;;9.00;99.90;;;;;;5071331;28;20017;-86
2022/05/05 04:19:39;;;;;;;14.95;11.60;;;9.10;99.90;;;;;;5072665;28;20100;-86
2022/05/05 04:22:05;;;;;;;17.15;10.38;;;9.10;99.90;;;;;;5072777;28;20023;-86
2022/05/05 04:24:31;;;;;;;14.43;10.15;;;9.10;99.90;;;;;;5071593;28;20100;-86
2022/05/05 04:26:57;;;;;;;23.48;12.65;;;9.10;99.90;;;;;;5072755;28;20020;-85
2022/05/05 04:29:27;;;;;;;25.13;11.85;;;9.10;99.90;;;;;;5071526;28;20024;-86
2022/05/05 04:31:53;;;;;;;16.65;12.40;;;9.10;99.90;;;;;;5072171;28;20029;-86
2022/05/05 04:34:18;;;;;;;19.20;13.00;;;9.00;99.90;;;;;;5072577;28;20028;-86
2022/05/05 04:36:53;;;;;;;15.93;11.13;;;9.00;99.90;;;;;;5072281;28;20028;-86
2022/05/05 04:39:19;;;;;;;20.38;11.90;;;9.00;99.90;;;;;;5072578;28;20029;-86
2022/05/05 04:42:01;;;;;;;18.48;11.98;;;9.00;99.90;;;;;;5072593;28;20074;-86
2022/05/05 04:44:26;;;;;;;26.75;15.20;;;9.10;99.90;;;;;;5072427;28;20028;-86
2022/05/05 04:46:53;;;;;;;31.05;15.02;;;9.10;99.90;;;;;;5072181;28;20027;-86
2022/05/05 04:49:18;;;;;;;31.58;17.40;;;9.10;99.90;;;;;;5072488;28;20020;-86
2022/05/05 04:51:46;;;;;;;25.25;14.73;;;9.10;99.90;;;;;;5071248;28;20481;-86
2022/05/05 04:54:11;;;;;;;32.88;15.50;;;9.10;99.90;;;;;;5072278;28;20021;-86
2022/05/05 04:56:48;;;;;;;30.98;15.88;;;9.20;99.90;;;;;;5072391;28;20028;-86
2022/05/05 04:59:14;;;;;;;26.85;15.30;;;9.20;99.90;;;;;;5072359;28;20052;-86
2022/05/05 05:01:39;;;;;;;27.40;15.18;;;9.30;99.90;;;;;;5070769;28;20033;-86
2022/05/05 05:04:06;;;;;;;33.65;16.08;;;9.40;99.90;;;;;;5071067;28;20369;-86
2022/05/05 05:06:33;;;;;;;21.50;14.32;;;9.40;99.90;;;;;;5072234;28;20029;-86
2022/05/05 05:08:59;;;;;;;38.13;17.35;;;9.40;99.90;;;;;;5072266;28;20496;-86
2022/05/05 05:11:28;;;;;;;25.70;14.80;;;9.40;99.90;;;;;;5071065;28;20017;-86
2022/05/05 05:13:54;;;;;;;27.17;14.45;;;9.40;99.90;;;;;;5070810;28;20491;-86
2022/05/05 05:16:20;;;;;;;23.40;13.63;;;9.50;99.90;;;;;;5072041;28;20029;-86
2022/05/05 05:18:47;;;;;;;28.80;14.18;;;9.50;99.90;;;;;;5072233;28;20456;-86
2022/05/05 05:21:15;;;;;;;21.30;13.95;;;9.50;99.90;;;;;;5070732;28;20039;-86
2022/05/05 05:23:41;;;;;;;32.17;14.80;;;9.60;99.90;;;;;;5070750;28;20122;-86
2022/05/05 05:26:08;;;;;;;33.67;15.93;;;9.60;99.90;;;;;;5071973;28;20109;-86
2022/05/05 05:28:33;;;;;;;25.52;15.05;;;9.60;99.90;;;;;;5070383;28;20375;-86
2022/05/05 05:31:09;;;;;;;31.70;15.20;;;9.60;99.90;;;;;;5071939;28;20017;-86
2022/05/05 05:33:36;;;;;;;30.75;14.45;;;9.60;99.90;;;;;;5071570;28;20041;-86
2022/05/05 05:36:02;;;;;;;26.58;15.35;;;9.60;99.90;;;;;;5072067;28;20146;-86
2022/05/05 05:38:37;;;;;;;32.90;14.27;;;9.60;99.90;;;;;;5070940;28;20033;-86
2022/05/05 05:41:02;;;;;;;30.60;13.20;;;9.70;99.90;;;;;;5070723;28;20025;-86
2022/05/05 05:43:37;;;;;;;29.35;14.13;;;9.70;99.90;;;;;;5071905;28;20040;-86
2022/05/05 05:46:02;;;;;;;29.43;14.70;;;9.70;99.90;;;;;;5071686;28;20481;-85
2022/05/05 05:48:28;;;;;;;34.55;14.00;;;9.80;99.90;;;;;;5072632;28;20324;-85
2022/05/05 05:50:53;;;;;;;23.67;13.02;;;9.80;99.90;;;;;;5074156;28;20503;-85
2022/05/05 05:53:21;;;;;;;25.33;15.35;;;9.80;99.90;;;;;;5075422;28;20024;-85
2022/05/05 05:55:47;;;;;;;25.55;13.55;;;9.80;99.90;;;;;;5074224;28;20052;-85
2022/05/05 05:58:17;;;;;;;29.48;13.70;;;9.90;99.90;;;;;;5075241;28;20515;-85
2022/05/05 06:00:43;;;;;;;30.80;14.00;;;9.90;99.90;;;;;;5075021;28;20369;-85
2022/05/05 06:05:53;;;;;;;24.60;12.48;;;10.00;99.90;;;;;;5075306;28;20028;-85
2022/05/05 06:08:22;;;;;;;24.30;13.75;;;10.00;99.90;;;;;;5075223;28;20029;-85
2022/05/05 06:10:48;;;;;;;44.00;15.68;;;10.10;99.90;;;;;;5075283;28;20100;-85
2022/05/05 06:13:23;;;;;;;31.88;14.60;;;10.10;99.90;;;;;;5074902;28;20134;-85
2022/05/05 06:15:49;;;;;;;22.60;13.68;;;10.10;99.90;;;;;;5073484;28;20035;-85
2022/05/05 06:18:51;;;;;;;26.38;13.77;;;10.10;99.90;;;;;;5074860;28;20029;-85
2022/05/05 06:21:16;;;;;;;23.17;12.82;;;10.20;99.90;;;;;;5073732;28;20085;-85
2022/05/05 06:23:50;;;;;;;40.08;15.68;;;10.30;99.90;;;;;;5073567;28;20033;-85
2022/05/05 06:26:16;;;;;;;24.60;13.25;;;10.40;99.90;;;;;;5074816;28;20060;-85
2022/05/05 06:28:47;;;;;;;21.65;12.30;;;10.40;99.90;;;;;;5074888;28;20498;-85
2022/05/05 06:31:13;;;;;;;22.33;12.77;;;10.40;99.90;;;;;;5074360;28;20023;-85
2022/05/05 06:33:38;;;;;;;29.58;13.98;;;10.50;99.90;;;;;;5074030;28;20040;-85
2022/05/05 06:36:16;;;;;;;23.85;12.82;;;10.50;99.90;;;;;;5073402;28;20028;-85
2022/05/05 06:38:42;;;;;;;22.88;14.50;;;10.60;99.90;;;;;;5074696;28;20390;-85
2022/05/05 06:41:15;;;;;;;26.92;13.93;;;10.60;99.90;;;;;;5073149;28;20029;-85
2022/05/05 06:43:40;;;;;;;25.67;12.40;;;10.70;99.90;;;;;;5074490;28;20024;-85
2022/05/05 06:46:42;;;;;;;23.85;12.98;;;10.70;99.90;;;;;;5074103;28;20037;-85
2022/05/05 06:49:07;;;;;;;20.95;12.18;;;10.80;99.90;;;;;;5074400;28;20024;-85
2022/05/05 06:51:43;;;;;;;21.42;12.40;;;10.90;99.90;;;;;;5074205;28;20024;-85
2022/05/05 06:54:09;;;;;;;20.02;12.95;;;10.90;99.90;;;;;;5072993;28;20028;-85
2022/05/05 06:56:35;;;;;;;22.45;13.00;;;11.00;99.90;;;;;;5074186;28;20054;-85
2022/05/05 06:59:01;;;;;;;28.58;14.65;;;11.00;99.90;;;;;;5074259;28;20036;-86
2022/05/05 07:02:12;;;;;;;24.80;14.43;;;11.10;99.90;;;;;;5072559;28;20033;-85
2022/05/05 07:07:03;;;;;;;30.60;14.90;;;11.20;99.90;;;;;;5074225;28;20379;-85
2022/05/05 07:12:36;;;;;;;39.60;14.70;;;11.30;99.90;;;;;;5073849;28;20043;-85
2022/05/05 07:15:07;;;;;;;37.60;14.25;;;11.40;99.90;;;;;;5073643;28;20024;-85
2022/05/05 07:17:33;;;;;;;29.77;14.75;;;11.50;99.90;;;;;;5073664;28;20027;-85
2022/05/05 07:20:01;;;;;;;27.73;12.88;;;11.40;99.90;;;;;;5072408;28;20111;-85
2022/05/05 07:22:27;;;;;;;41.15;15.63;;;11.40;99.90;;;;;;5073643;28;20048;-86
2022/05/05 07:25:04;;;;;;;21.40;12.50;;;11.50;99.90;;;;;;5072197;28;20029;-85
2022/05/05 07:27:29;;;;;;;27.35;13.45;;;11.50;99.90;;;;;;5073603;28;20024;-85
2022/05/05 07:29:56;;;;;;;28.25;12.40;;;11.60;99.90;;;;;;5073206;28;20035;-86
2022/05/05 07:32:22;;;;;;;36.85;15.63;;;11.60;99.90;;;;;;5073353;28;20044;-85
2022/05/05 07:34:47;;;;;;;32.42;13.48;;;11.70;99.90;;;;;;5073383;28;20024;-85
2022/05/05 07:37:28;;;;;;;27.10;13.13;;;11.70;99.90;;;;;;5073282;28;20032;-86
2022/05/05 07:39:54;;;;;;;24.15;12.38;;;11.80;99.90;;;;;;5072054;28;20112;-85
2022/05/05 07:42:23;;;;;;;24.88;13.13;;;11.90;99.90;;;;;;5072190;28;20458;-86
2022/05/05 07:44:49;;;;;;;29.67;12.27;;;11.90;99.90;;;;;;5072896;28;20032;-86
2022/05/05 07:47:20;;;;;;;31.63;12.15;;;12.00;99.90;;;;;;5073198;28;20104;-85
2022/05/05 07:49:45;;;;;;;24.45;11.48;;;12.10;99.90;;;;;;5073330;28;20032;-85
2022/05/05 07:52:34;;;;;;;20.67;10.77;;;12.20;99.90;;;;;;5073136;28;20468;-85
2022/05/05 07:54:59;;;;;;;24.70;11.20;;;12.20;99.90;;;;;;5073083;28;20028;-86
2022/05/05 07:58:12;;;;;;;25.77;13.77;;;12.30;99.90;;;;;;5071895;28;20029;-85
2022/05/05 08:00:37;;;;;;;24.08;11.60;;;12.30;99.90;;;;;;5072845;28;20472;-85
2022/05/05 08:03:09;;;;;;;23.20;11.88;;;12.30;99.90;;;;;;5073038;28;20116;-86
2022/05/05 08:05:35;;;;;;;30.63;12.90;;;12.40;99.90;;;;;;5072882;28;20024;-86
2022/05/05 08:08:06;;;;;;;24.75;12.73;;;12.40;99.90;;;;;;5071658;28;20358;-86
2022/05/05 08:10:32;;;;;;;20.30;11.35;;;12.50;99.90;;;;;;5071399;28;20513;-86
2022/05/05 08:13:06;;;;;;;28.67;12.68;;;12.50;99.90;;;;;;5071964;28;20016;-86
2022/05/05 08:15:31;;;;;;;36.65;13.90;;;12.50;99.90;;;;;;5072495;28;20817;-86
2022/05/05 08:18:00;;;;;;;24.40;10.85;;;12.50;99.90;;;;;;5071254;28;20060;-86
2022/05/05 08:20:25;;;;;;;22.55;10.85;;;12.70;99.90;;;;;;5072806;28;20102;-86
2022/05/05 08:22:54;;;;;;;28.30;10.80;;;12.80;99.90;;;;;;5072750;28;20042;-86
2022/05/05 08:30:49;;;;;;;;;;;12.90;99.90;;;;;;5072841;28;20096;-87
2022/05/05 08:33:15;;;;;;;23.88;10.52;;;12.90;99.90;;;;;;5070126;28;20006;-87
2022/05/05 08:35:47;;;;;;;18.38;10.05;;;13.00;99.90;;;;;;5072886;28;20033;-86
2022/05/05 08:38:14;;;;;;;19.67;9.48;;;12.90;99.90;;;;;;5072736;28;20070;-87
2022/05/05 08:40:51;;;;;;;21.88;10.10;;;13.00;99.90;;;;;;5072549;28;20529;-87
2022/05/05 08:43:18;;;;;;;22.83;10.57;;;13.00;99.90;;;;;;5072616;28;20362;-87
2022/05/05 08:45:47;;;;;;;22.27;10.07;;;13.00;99.90;;;;;;5072319;28;20033;-88
2022/05/05 08:48:13;;;;;;;18.00;9.45;;;13.00;99.90;;;;;;5072458;28;20028;-88
2022/05/05 08:50:44;;;;;;;20.52;10.18;;;13.10;99.90;;;;;;5072526;28;20576;-87
2022/05/05 08:53:14;;;;;;;21.80;9.57;;;13.10;99.90;;;;;;5072472;28;20511;-87
2022/05/05 08:55:43;;;;;;;28.00;9.60;;;13.20;99.90;;;;;;5072668;28;20168;-88
2022/05/05 08:58:09;;;;;;;23.40;10.18;;;13.20;99.90;;;;;;5071111;28;20025;-87
2022/05/05 09:00:36;;;;;;;21.58;10.25;;;13.30;99.90;;;;;;5070784;28;20054;-88
2022/05/05 09:03:04;;;;;;;22.38;10.07;;;13.30;99.90;;;;;;5072268;28;20074;-88
2022/05/05 09:05:49;;;;;;;34.55;11.98;;;13.40;99.90;;;;;;5072201;28;20028;-87
2022/05/05 09:08:27;;;;;;;27.60;10.63;;;13.40;99.90;;;;;;5072280;28;20396;-88
2022/05/05 09:10:59;;;;;;;26.05;9.25;;;13.50;99.90;;;;;;5072198;28;20021;-88
2022/05/05 09:13:29;;;;;;;16.30;8.95;;;13.60;99.90;;;;;;5070939;28;20028;-88
2022/05/05 09:15:57;;;;;;;29.92;8.68;;;13.70;99.90;;;;;;5071892;28;20016;-88
2022/05/05 09:18:29;;;;;;;18.60;8.88;;;13.70;99.90;;;;;;5072278;28;20421;-86
2022/05/05 09:21:13;;;;;;;25.52;9.70;;;13.70;99.90;;;;;;5072043;28;20477;-85
2022/05/05 09:26:26;;;;;;;21.83;10.13;;;13.80;99.90;;;;;;5067904;28;20036;-85
2022/05/05 09:28:52;;;;;;;29.95;10.48;;;13.90;99.90;;;;;;5075685;28;20515;-85
2022/05/05 09:31:38;;;;;;;22.75;9.88;;;14.00;99.90;;;;;;5075453;28;20096;-87
2022/05/05 09:34:04;;;;;;;20.40;8.55;;;14.10;99.90;;;;;;5075222;28;20052;-85
2022/05/05 09:36:30;;;;;;;13.30;8.50;;;14.30;99.90;;;;;;5074041;28;20033;-85
2022/05/05 09:39:03;;;;;;;26.00;8.85;;;14.20;99.90;;;;;;5074338;28;20024;-85
2022/05/05 09:41:42;;;;;;;23.95;9.07;;;14.30;99.90;;;;;;5075297;28;20078;-86
2022/05/05 09:44:16;;;;;;;22.95;8.65;;;14.40;99.90;;;;;;5075560;28;20384;-86
2022/05/05 09:46:45;;;;;;;22.23;10.15;;;14.50;99.90;;;;;;5075485;28;20031;-84
2022/05/05 09:49:14;;;;;;;16.38;7.97;;;14.60;99.90;;;;;;5075455;28;20036;-88
2022/05/05 09:57:42;;;;;;;20.70;7.75;;;14.40;99.90;;;;;;5075696;28;20073;-85
2022/05/05 10:00:57;;;;;;;22.20;7.85;;;14.40;99.90;;;;;;5073795;28;20035;-84
2022/05/05 10:05:48;;;;;;;12.38;5.55;;;14.50;99.90;;;;;;5075291;28;20035;-85
2022/05/05 10:08:22;;;;;;;14.75;6.03;;;14.50;99.90;;;;;;5075087;28;20108;-86
2022/05/05 10:10:55;;;;;;;13.43;6.47;;;14.50;99.90;;;;;;5075170;28;20025;-85
2022/05/05 10:13:21;;;;;;;14.55;6.00;;;14.40;99.90;;;;;;5074915;28;20024;-86
2022/05/05 10:16:23;;;;;;;8.85;5.07;;;14.30;99.90;;;;;;5074805;28;20039;-86
2022/05/05 10:18:50;;;;;;;8.05;3.30;;;14.40;99.90;;;;;;5074987;28;20025;-86
2022/05/05 10:21:38;;;;;;;6.68;3.25;;;14.40;99.90;;;;;;5074086;28;20028;-87
2022/05/05 10:24:22;;;;;;;8.38;4.35;;;14.30;99.90;;;;;;5074785;28;20035;-88
2022/05/05 10:26:51;;;;;;;14.48;5.57;;;14.30;99.90;;;;;;5074805;28;20502;-86
2022/05/05 10:29:36;;;;;;;12.88;5.88;;;14.30;99.90;;;;;;5073549;28;20401;-86
2022/05/05 10:32:05;;;;;;;14.77;5.78;;;14.40;99.90;;;;;;5073652;28;20013;-86
2022/05/05 10:34:32;;;;;;;13.25;5.60;;;14.30;99.90;;;;;;5074156;28;20081;-86
2022/05/05 10:37:13;;;;;;;15.00;5.03;;;14.30;99.90;;;;;;5073198;28;20024;-87
2022/05/05 10:39:45;;;;;;;12.18;5.47;;;14.30;99.90;;;;;;5074624;28;20052;-86
2022/05/05 10:42:33;;;;;;;16.85;6.10;;;14.30;99.90;;;;;;5073181;28;20029;-87
2022/05/05 10:48:28;;;;;;;16.85;6.53;;;14.20;99.90;;;;;;5052303;28;20120;-86
2022/05/05 10:51:05;;;;;;;15.63;6.10;;;14.30;99.90;;;;;;5073768;28;20024;-86
2022/05/05 10:53:44;;;;;;;12.65;5.55;;;14.40;99.90;;;;;;5074244;28;20027;-86
2022/05/05 10:56:28;;;;;;;21.38;8.07;;;14.20;99.90;;;;;;5074190;28;20107;-86
2022/05/05 10:59:06;;;;;;;22.95;8.38;;;14.20;99.90;;;;;;5074027;28;20038;-86
2022/05/05 11:01:41;;;;;;;13.13;7.20;;;14.20;99.90;;;;;;5074092;28;20431;-86
2022/05/05 11:04:15;;;;;;;20.58;8.57;;;14.20;99.90;;;;;;5073958;28;20021;-86
2022/05/05 11:06:44;;;;;;;12.45;7.07;;;14.20;99.90;;;;;;5074005;28;20503;-87
2022/05/05 11:09:30;;;;;;;20.27;7.63;;;14.20;99.90;;;;;;5073940;28;20024;-87
2022/05/05 11:12:15;;;;;;;20.10;8.25;;;14.10;99.90;;;;;;5073954;28;20082;-87
2022/05/05 11:23:57;;;;;;;24.92;9.15;;;14.40;99.90;;;;;;5073708;28;20059;-87
2022/05/05 11:26:48;;;;;;;22.20;8.95;;;14.40;99.90;;;;;;5073504;28;20028;-88
2022/05/05 11:29:16;;;;;;;14.05;5.90;;;14.30;99.90;;;;;;5073214;28;20112;-87
2022/05/05 11:32:05;;;;;;;20.30;8.20;;;14.30;99.90;;;;;;5072365;28;20044;-86
2022/05/05 11:34:52;;;;;;;12.20;5.43;;;14.40;99.90;;;;;;5073459;28;20059;-87
2022/05/05 11:37:17;;;;;;;12.20;5.57;;;14.50;99.90;;;;;;5073296;28;20115;-87
2022/05/05 11:39:49;;;;;;;11.45;5.53;;;14.50;99.90;;;;;;5072179;28;20512;-87
2022/05/05 11:42:14;;;;;;;10.73;4.22;;;14.40;99.90;;;;;;5073263;28;20070;-87
2022/05/05 11:44:43;;;;;;;12.10;6.45;;;14.40;99.90;;;;;;5072915;28;20029;-86
2022/05/05 11:47:17;;;;;;;13.88;6.32;;;14.40;99.90;;;;;;5072469;28;20353;-86
2022/05/05 11:49:53;;;;;;;22.15;6.20;;;14.40;99.90;;;;;;5073400;28;20052;-86
2022/05/05 11:52:23;;;;;;;12.30;5.65;;;14.40;99.90;;;;;;5073146;28;20446;-86
2022/05/05 11:55:05;;;;;;;15.32;6.10;;;14.50;99.90;;;;;;5073203;28;20070;-86
2022/05/05 11:57:40;;;;;;;13.55;6.18;;;14.50;99.90;;;;;;5071874;28;20022;-86
2022/05/05 12:02:52;;;;;;;;;;;14.50;99.90;;;;;;5073586;28;20040;-87
2022/05/05 12:05:21;;;;;;;13.32;6.60;;;14.40;99.90;;;;;;5071558;28;19912;-86
2022/05/05 12:07:47;;;;;;;15.13;5.75;;;14.50;99.90;;;;;;5073040;28;20374;-86
2022/05/05 12:10:14;;;;;;;20.58;4.95;;;14.50;99.90;;;;;;5071632;28;20028;-86
2022/05/05 12:12:45;;;;;;;19.17;5.40;;;14.50;99.90;;;;;;5071966;28;20447;-86
2022/05/05 12:15:12;;;;;;;14.57;4.30;;;14.60;99.90;;;;;;5072589;28;20537;-86
2022/05/05 12:17:42;;;;;;;16.83;3.90;;;14.70;99.90;;;;;;5071977;28;20029;-87
2022/05/05 12:20:11;;;;;;;9.27;3.60;;;14.70;99.90;;;;;;5072803;28;20024;-87
2022/05/05 12:22:41;;;;;;;11.93;4.25;;;14.80;99.90;;;;;;5072721;28;20043;-86
2022/05/05 12:25:16;;;;;;;11.80;4.80;;;14.80;99.90;;;;;;5072299;28;20037;-86
2022/05/05 12:27:44;;;;;;;15.45;4.18;;;14.90;99.90;;;;;;5071122;28;20123;-87
2022/05/05 12:30:40;;;;;;;22.15;5.88;;;14.90;99.90;;;;;;5072449;28;20020;-87
2022/05/05 12:36:29;;;;;;;14.82;5.15;;;14.90;99.90;;;;;;5072675;28;19927;-86
2022/05/05 12:39:11;;;;;;;10.43;3.65;;;14.90;99.90;;;;;;5072501;28;20104;-86
2022/05/05 12:41:55;;;;;;;11.02;3.53;;;14.90;99.90;;;;;;5072557;28;20060;-86
2022/05/05 12:44:20;;;;;;;9.80;3.10;;;14.90;99.90;;;;;;5072182;28;20055;-86
2022/05/05 12:46:51;;;;;;;10.65;3.25;;;14.90;99.90;;;;;;5072483;28;20445;-87
2022/05/05 12:49:39;;;;;;;18.77;3.53;;;14.90;99.90;;;;;;5072527;28;20028;-86
2022/05/05 13:00:55;;;;;;;7.90;3.05;;;14.90;99.90;;;;;;5076364;28;20055;-87
2022/05/05 13:03:22;;;;;;;4.97;2.47;;;15.00;99.90;;;;;;5076527;28;20036;-87
2022/05/05 13:05:48;;;;;;;4.95;2.38;;;15.00;99.90;;;;;;5076355;28;20024;-88
2022/05/05 13:08:19;;;;;;;6.78;2.45;;;15.00;99.90;;;;;;5076270;28;20021;-88
2022/05/05 13:10:46;;;;;;;5.93;2.30;;;15.10;99.90;;;;;;5075116;28;20451;-88
2022/05/05 13:13:14;;;;;;;3.97;2.33;;;15.10;99.90;;;;;;5076301;28;20052;-89
2022/05/05 13:15:40;;;;;;;12.88;2.22;;;15.20;99.90;;;;;;5074681;28;20115;-88
2022/05/05 13:18:14;;;;;;;5.53;2.58;;;15.30;99.90;;;;;;5076174;28;20456;-88
2022/05/05 13:20:40;;;;;;;3.75;1.73;;;15.40;99.90;;;;;;5076163;28;20028;-88
2022/05/05 13:23:26;;;;;;;12.02;2.58;;;15.40;99.90;;;;;;5075982;28;20468;-89
2022/05/05 13:25:52;;;;;;;7.90;2.60;;;15.50;99.90;;;;;;5074659;28;20119;-90
2022/05/05 13:28:25;;;;;;;8.20;2.10;;;15.70;99.90;;;;;;5075845;28;20151;-92
2022/05/05 13:30:51;;;;;;;7.07;2.40;;;15.90;99.90;;;;;;5075727;28;20035;-89
2022/05/05 13:33:16;;;;;;;9.07;2.35;;;16.00;99.90;;;;;;5075544;28;20037;-88
2022/05/05 13:35:46;;;;;;;6.38;2.05;;;16.30;99.90;;;;;;5074618;28;20024;-88
2022/05/05 13:38:12;;;;;;;6.13;1.83;;;16.60;99.90;;;;;;5075590;28;20027;-89
2022/05/05 13:40:58;;;;;;;8.63;2.00;;;16.60;99.90;;;;;;5075723;28;20025;-87
2022/05/05 13:43:24;;;;;;;4.88;2.03;;;16.60;98.00;;;;;;5075716;28;20028;-89
2022/05/05 13:45:51;;;;;;;6.85;2.17;;;16.60;99.90;;;;;;5075435;28;20029;-87
2022/05/05 13:48:18;;;;;;;7.25;1.52;;;16.60;94.70;;;;;;5075684;28;20020;-86
2022/05/05 13:50:46;;;;;;;4.07;1.75;;;16.60;95.00;;;;;;5075728;28;20039;-86
2022/05/05 13:53:12;;;;;;;7.47;2.45;;;16.60;93.60;;;;;;5075317;28;20032;-86
2022/05/05 13:55:48;;;;;;;6.15;1.33;;;16.60;99.70;;;;;;5074246;28;20032;-86
2022/05/05 13:58:13;;;;;;;5.72;1.45;;;16.80;87.20;;;;;;5074071;28;20029;-87